createdAt,value
2022-08-03T00:00:21.565Z,98648.03
2022-08-03T00:02:48.072Z,98652.97
2022-08-03T00:05:14.567Z,98652.16
2022-08-03T00:07:41.168Z,98642.38
2022-08-03T00:10:08.078Z,98650.00
2022-08-03T00:12:36.349Z,98652.78
2022-08-03T00:15:03.258Z,98654.56
2022-08-03T00:17:53.636Z,98644.81
2022-08-03T00:20:19.943Z,98653.03
2022-08-03T00:22:46.492Z,98650.78
2022-08-03T00:25:13.786Z,98657.84
2022-08-03T00:27:40.186Z,98666.66
2022-08-03T00:30:07.392Z,98672.41
2022-08-03T00:32:33.834Z,98663.38
2022-08-03T00:35:07.963Z,98664.25
2022-08-03T00:37:41.563Z,98660.81
2022-08-03T00:40:11.295Z,98657.06
2022-08-03T00:42:47.706Z,98655.50
2022-08-03T00:45:14.567Z,98659.63
2022-08-03T00:47:40.956Z,98662.28
2022-08-03T00:50:07.680Z,98659.00
2022-08-03T00:52:34.962Z,98661.81
2022-08-03T00:55:02.899Z,98655.22
2022-08-03T00:57:31.908Z,98657.16
2022-08-03T01:00:00.031Z,98655.88
2022-08-03T01:02:28.527Z,98658.94
2022-08-03T01:04:56.118Z,98660.53
2022-08-03T01:07:46.385Z,98657.94
2022-08-03T01:10:18.496Z,98667.97
2022-08-03T01:12:50.880Z,98665.19
2022-08-03T01:15:17.307Z,98664.75
2022-08-03T01:17:57.457Z,98670.56
2022-08-03T01:20:27.270Z,98668.91
2022-08-03T01:23:15.543Z,98675.94
2022-08-03T01:26:19.555Z,98669.53
2022-08-03T01:29:01.707Z,98667.47
2022-08-03T01:32:52.496Z,98666.47
2022-08-03T01:34:32.407Z,98663.28
2022-08-03T01:37:00.880Z,98667.06
2022-08-03T01:39:30.630Z,98660.25
2022-08-03T01:42:01.170Z,98663.72
2022-08-03T01:44:31.046Z,98665.72
2022-08-03T01:47:02.281Z,98662.56
2022-08-03T01:49:32.600Z,98654.84
2022-08-03T01:52:04.520Z,98659.84
2022-08-03T01:54:37.716Z,98662.31
2022-08-03T01:57:05.865Z,98657.16
2022-08-03T01:59:35.889Z,98662.75
2022-08-03T02:02:19.505Z,98653.63
2022-08-03T02:04:52.696Z,98650.63
2022-08-03T02:07:20.213Z,98655.16
2022-08-03T02:09:50.927Z,98648.09
2022-08-03T02:12:18.994Z,98653.16
2022-08-03T02:14:47.832Z,98653.72
2022-08-03T02:17:15.922Z,98655.59
2022-08-03T02:19:44.692Z,98651.41
2022-08-03T02:22:13.807Z,98648.25
2022-08-03T02:24:40.995Z,98646.81
2022-08-03T02:27:17.918Z,98643.34
2022-08-03T02:29:49.206Z,98647.41
2022-08-03T02:32:20.351Z,98649.97
2022-08-03T02:34:50.710Z,98647.53
2022-08-03T02:37:19.674Z,98648.03
2022-08-03T02:39:47.710Z,98646.44
2022-08-03T02:42:17.161Z,98642.50
2022-08-03T02:44:48.397Z,98639.41
2022-08-03T02:47:16.906Z,98639.38
2022-08-03T02:49:51.467Z,98638.34
2022-08-03T02:52:21.391Z,98633.41
2022-08-03T02:54:51.000Z,98633.72
2022-08-03T02:57:19.420Z,98630.53
2022-08-03T02:59:47.060Z,98630.53
2022-08-03T03:02:16.335Z,98635.34
2022-08-03T03:05:55.894Z,98637.78
2022-08-03T03:07:35.340Z,98643.53
2022-08-03T03:10:19.724Z,98643.72
2022-08-03T03:12:47.159Z,98656.44
2022-08-03T03:15:16.203Z,98652.00
2022-08-03T03:17:44.366Z,98652.16
2022-08-03T03:20:14.862Z,98654.50
2022-08-03T03:22:41.514Z,98655.25
2022-08-03T03:25:15.650Z,98659.53
2022-08-03T03:27:48.815Z,98651.84
2022-08-03T03:30:20.594Z,98651.75
2022-08-03T03:32:47.194Z,98656.06
2022-08-03T03:35:14.787Z,98652.16
2022-08-03T03:37:41.288Z,98659.81
2022-08-03T03:40:09.074Z,98652.81
2022-08-03T03:42:35.934Z,98661.00
2022-08-03T03:45:07.577Z,98655.25
2022-08-03T03:47:35.423Z,98653.97
2022-08-03T03:50:03.957Z,98659.28
2022-08-03T03:52:32.107Z,98646.88
2022-08-03T03:55:01.061Z,98655.56
2022-08-03T03:57:28.361Z,98656.84
2022-08-03T03:59:54.993Z,98659.16
2022-08-03T04:02:21.443Z,98657.72
2022-08-03T04:05:06.588Z,98662.88
2022-08-03T04:08:02.772Z,98659.69
2022-08-03T04:10:52.422Z,98661.16
2022-08-03T04:13:21.902Z,98660.41
2022-08-03T04:15:50.069Z,98656.94
2022-08-03T04:18:18.995Z,98656.41
2022-08-03T04:20:48.769Z,98661.13
2022-08-03T04:23:18.645Z,98661.59
2022-08-03T04:25:46.560Z,98657.91
2022-08-03T04:28:29.400Z,98664.75
2022-08-03T04:30:58.072Z,98672.84
2022-08-03T04:33:29.440Z,98662.53
2022-08-03T04:36:02.565Z,98671.13
2022-08-03T04:38:31.573Z,98675.06
2022-08-03T04:41:00.229Z,98672.34
2022-08-03T04:43:28.925Z,98668.28
2022-08-03T04:45:56.544Z,98672.16
2022-08-03T04:48:23.170Z,98673.09
2022-08-03T04:50:50.024Z,98670.16
2022-08-03T04:53:18.412Z,98677.97
2022-08-03T04:55:46.433Z,98680.28
2022-08-03T04:58:14.285Z,98685.16
2022-08-03T05:00:40.776Z,98683.53
2022-08-03T05:03:23.935Z,98678.97
2022-08-03T05:05:51.428Z,98679.94
2022-08-03T05:08:20.314Z,98680.97
2022-08-03T05:10:47.766Z,98680.50
2022-08-03T05:13:16.947Z,98687.44
2022-08-03T05:15:43.476Z,98680.72
2022-08-03T05:18:13.862Z,98681.69
2022-08-03T05:20:41.278Z,98690.03
2022-08-03T05:23:07.927Z,98693.16
2022-08-03T05:25:34.427Z,98685.66
2022-08-03T05:28:01.433Z,98694.91
2022-08-03T05:30:33.538Z,98702.94
2022-08-03T05:33:04.572Z,98695.69
2022-08-03T05:36:00.709Z,98700.78
2022-08-03T05:38:24.040Z,98705.66
2022-08-03T05:40:57.227Z,98703.31
2022-08-03T05:43:24.626Z,98699.81
2022-08-03T05:46:11.611Z,98699.59
2022-08-03T05:48:37.877Z,98700.78
2022-08-03T05:51:06.553Z,98703.38
2022-08-03T05:53:33.970Z,98703.63
2022-08-03T05:56:14.610Z,98699.22
2022-08-03T05:58:46.794Z,98698.50
2022-08-03T06:01:14.064Z,98693.84
2022-08-03T06:03:40.650Z,98696.91
2022-08-03T06:06:07.182Z,98690.72
2022-08-03T06:08:34.452Z,98692.75
2022-08-03T06:11:01.225Z,98697.28
2022-08-03T06:13:27.704Z,98697.53
2022-08-03T06:15:54.203Z,98696.19
2022-08-03T06:18:20.627Z,98693.28
2022-08-03T06:20:49.262Z,98695.88
2022-08-03T06:23:18.046Z,98696.25
2022-08-03T06:25:45.490Z,98685.44
2022-08-03T06:28:35.191Z,98685.63
2022-08-03T06:31:00.828Z,98687.28
2022-08-03T06:34:30.461Z,98680.31
2022-08-03T06:36:14.930Z,98684.94
2022-08-03T06:38:41.389Z,98683.81
2022-08-03T06:41:07.867Z,98680.75
2022-08-03T06:43:37.960Z,98673.00
2022-08-03T06:46:24.057Z,98679.72
2022-08-03T06:48:50.575Z,98676.72
2022-08-03T06:51:17.388Z,98676.59
2022-08-03T06:53:43.946Z,98685.34
2022-08-03T06:56:11.105Z,98681.06
2022-08-03T06:58:37.788Z,98686.56
2022-08-03T07:01:04.379Z,98683.75
2022-08-03T07:03:31.118Z,98688.28
2022-08-03T07:05:57.624Z,98680.28
2022-08-03T07:08:33.513Z,98683.94
2022-08-03T07:11:01.013Z,98681.56
2022-08-03T07:13:27.631Z,98677.38
2022-08-03T07:15:56.029Z,98671.00
2022-08-03T07:18:29.380Z,98679.72
2022-08-03T07:20:57.318Z,98672.56
2022-08-03T07:23:24.096Z,98674.38
2022-08-03T07:25:50.927Z,98668.66
2022-08-03T07:28:18.040Z,98668.22
2022-08-03T07:30:44.837Z,98671.00
2022-08-03T07:33:15.217Z,98669.16
2022-08-03T07:35:41.974Z,98673.66
2022-08-03T07:38:08.503Z,98667.88
2022-08-03T07:40:35.048Z,98674.41
2022-08-03T07:43:04.983Z,98678.50
2022-08-03T07:45:31.977Z,98675.59
2022-08-03T07:47:58.649Z,98677.38
2022-08-03T07:50:25.368Z,98675.03
2022-08-03T07:52:53.707Z,98668.25
2022-08-03T07:55:25.474Z,98671.13
2022-08-03T07:58:06.678Z,98661.03
2022-08-03T08:00:34.005Z,98666.84
2022-08-03T08:03:00.582Z,98659.34
2022-08-03T08:05:27.922Z,98657.75
2022-08-03T08:07:54.506Z,98658.56
2022-08-03T08:10:21.595Z,98651.28
2022-08-03T08:12:48.929Z,98658.22
2022-08-03T08:15:15.507Z,98656.06
2022-08-03T08:17:50.617Z,98659.22
2022-08-03T08:20:23.862Z,98655.63
2022-08-03T08:23:01.607Z,98651.88
2022-08-03T08:25:29.991Z,98654.28
2022-08-03T08:28:29.064Z,98647.25
2022-08-03T08:30:43.470Z,98649.53
2022-08-03T08:33:15.709Z,98639.13
2022-08-03T08:35:53.439Z,98648.38
2022-08-03T08:38:20.030Z,98638.31
2022-08-03T08:40:46.756Z,98643.38
2022-08-03T08:43:13.244Z,98643.44
2022-08-03T08:45:41.973Z,98641.47
2022-08-03T08:48:11.380Z,98642.25
2022-08-03T08:50:39.184Z,98643.00
2022-08-03T08:53:10.734Z,98638.25
2022-08-03T08:55:56.886Z,98642.25
2022-08-03T08:58:34.867Z,98630.84
2022-08-03T09:01:01.684Z,98624.94
2022-08-03T09:03:30.065Z,98628.66
2022-08-03T09:06:00.083Z,98633.66
2022-08-03T09:08:26.803Z,98619.72
2022-08-03T09:10:53.285Z,98622.41
2022-08-03T09:13:20.169Z,98622.75
2022-08-03T09:15:59.840Z,98620.09
2022-08-03T09:18:32.491Z,98619.72
2022-08-03T09:21:30.692Z,98618.53
2022-08-03T09:24:02.901Z,98613.03
2022-08-03T09:26:32.327Z,98623.81
2022-08-03T09:29:06.912Z,98619.31
2022-08-03T09:31:39.655Z,98618.56
2022-08-03T09:34:12.795Z,98611.63
2022-08-03T09:36:46.971Z,98620.75
2022-08-03T09:39:16.408Z,98613.72
2022-08-03T09:42:03.694Z,98607.22
2022-08-03T09:44:38.737Z,98612.88
2022-08-03T09:47:10.033Z,98606.84
2022-08-03T09:49:38.398Z,98603.97
2022-08-03T09:52:38.044Z,98607.78
2022-08-03T09:56:36.494Z,98611.97
2022-08-03T09:58:09.128Z,98616.03
2022-08-03T10:00:54.139Z,98606.31
2022-08-03T10:03:21.653Z,98609.25
2022-08-03T10:05:48.671Z,98601.44
2022-08-03T10:08:17.004Z,98598.88
2022-08-03T10:10:45.423Z,98600.94
2022-08-03T10:13:17.248Z,98595.00
2022-08-03T10:16:22.768Z,98591.72
2022-08-03T10:18:32.167Z,98575.25
2022-08-03T10:21:10.741Z,98584.75
2022-08-03T10:23:39.989Z,98590.09
2022-08-03T10:26:08.243Z,98580.47
2022-08-03T10:28:38.394Z,98581.09
2022-08-03T10:31:09.630Z,98587.09
2022-08-03T10:33:52.066Z,98575.41
2022-08-03T10:36:27.312Z,98579.00
2022-08-03T10:38:56.994Z,98572.78
2022-08-03T10:41:29.800Z,98573.94
2022-08-03T10:43:59.376Z,98578.66
2022-08-03T10:46:26.324Z,98564.31
2022-08-03T10:48:53.895Z,98565.44
2022-08-03T10:51:20.966Z,98557.31
2022-08-03T10:53:54.383Z,98558.06
2022-08-03T10:57:19.537Z,98553.66
2022-08-03T10:59:46.183Z,98553.38
2022-08-03T11:02:14.452Z,98548.41
2022-08-03T11:04:42.212Z,98548.38
2022-08-03T11:07:24.791Z,98552.25
2022-08-03T11:09:53.982Z,98548.38
2022-08-03T11:12:34.174Z,98542.59
2022-08-03T11:15:05.607Z,98541.59
2022-08-03T11:17:46.228Z,98541.00
2022-08-03T11:20:47.242Z,98536.47
2022-08-03T11:23:15.733Z,98530.19
2022-08-03T11:26:11.089Z,98534.41
2022-08-03T11:28:40.337Z,98522.78
2022-08-03T11:31:47.181Z,98524.22
2022-08-03T11:34:17.429Z,98528.59
2022-08-03T11:37:38.097Z,98517.41
2022-08-03T11:40:06.128Z,98518.94
2022-08-03T11:42:36.707Z,98516.19
2022-08-03T11:45:07.906Z,98510.31
2022-08-03T11:47:37.546Z,98514.13
2022-08-03T11:50:19.151Z,98518.06
2022-08-03T11:52:46.056Z,98511.97
2022-08-03T11:55:14.567Z,98512.34
2022-08-03T11:59:01.153Z,98504.63
2022-08-03T12:00:33.351Z,98499.56
2022-08-03T12:03:02.883Z,98503.06
2022-08-03T12:05:53.747Z,98502.66
2022-08-03T12:08:32.908Z,98498.75
2022-08-03T12:11:02.500Z,98501.88
2022-08-03T12:13:56.573Z,98498.78
2022-08-03T12:16:26.285Z,98498.03
2022-08-03T12:18:58.922Z,98490.19
2022-08-03T12:21:26.039Z,98492.53
2022-08-03T12:24:01.443Z,98489.03
2022-08-03T12:26:43.154Z,98490.97
2022-08-03T12:29:26.192Z,98489.38
2022-08-03T12:31:53.076Z,98495.97
2022-08-03T12:34:19.858Z,98485.91
2022-08-03T12:36:57.010Z,98483.28
2022-08-03T12:39:26.298Z,98474.31
2022-08-03T12:41:54.726Z,98478.22
2022-08-03T12:44:30.722Z,98481.28
2022-08-03T12:46:59.234Z,98476.28
2022-08-03T12:49:26.419Z,98471.28
2022-08-03T12:51:53.344Z,98471.63
2022-08-03T12:54:29.483Z,98463.13
2022-08-03T12:57:01.173Z,98458.88
2022-08-03T12:59:35.184Z,98459.19
2022-08-03T13:02:24.790Z,98455.75
2022-08-03T13:04:52.966Z,98449.16
2022-08-03T13:07:20.602Z,98457.66
2022-08-03T13:09:55.769Z,98454.22
2022-08-03T13:12:27.647Z,98443.34
2022-08-03T13:15:01.033Z,98440.94
2022-08-03T13:17:28.111Z,98442.81
2022-08-03T13:19:54.746Z,98446.91
2022-08-03T13:22:27.124Z,98441.09
2022-08-03T13:24:57.493Z,98440.59
2022-08-03T13:28:03.803Z,98444.84
2022-08-03T13:30:12.049Z,98444.13
2022-08-03T13:32:38.608Z,98446.03
2022-08-03T13:35:05.832Z,98440.63
2022-08-03T13:37:35.351Z,98440.63
2022-08-03T13:40:05.623Z,98439.13
2022-08-03T13:42:33.622Z,98432.88
2022-08-03T13:45:01.059Z,98433.22
2022-08-03T13:47:28.440Z,98428.97
2022-08-03T13:50:00.818Z,98428.53
2022-08-03T13:52:32.432Z,98425.50
2022-08-03T13:55:00.221Z,98418.75
2022-08-03T13:58:02.298Z,98422.59
2022-08-03T14:00:26.566Z,98417.97
2022-08-03T14:03:01.809Z,98410.91
2022-08-03T14:05:34.081Z,98414.69
2022-08-03T14:08:05.649Z,98410.44
2022-08-03T14:10:37.219Z,98411.69
2022-08-03T14:13:05.502Z,98407.81
2022-08-03T14:15:37.978Z,98413.31
2022-08-03T14:18:05.635Z,98405.59
2022-08-03T14:20:38.683Z,98409.56
2022-08-03T14:23:16.259Z,98409.13
2022-08-03T14:25:50.360Z,98403.41
2022-08-03T14:28:25.462Z,98402.22
2022-08-03T14:30:53.820Z,98397.47
2022-08-03T14:33:20.592Z,98397.50
2022-08-03T14:35:47.476Z,98390.63
2022-08-03T14:38:14.241Z,98391.69
2022-08-03T14:40:40.874Z,98384.00
2022-08-03T14:43:07.581Z,98378.56
2022-08-03T14:45:37.356Z,98379.31
2022-08-03T14:50:29.394Z,98383.47
2022-08-03T14:50:56.531Z,98384.50
2022-08-03T14:53:23.217Z,98392.56
2022-08-03T14:55:51.956Z,98382.97
2022-08-03T14:58:21.183Z,98378.69
2022-08-03T15:00:49.176Z,98374.38
2022-08-03T15:03:17.065Z,98372.50
2022-08-03T15:05:44.491Z,98363.72
2022-08-03T15:08:11.132Z,98359.50
2022-08-03T15:10:43.884Z,98358.81
2022-08-03T15:13:14.612Z,98346.84
2022-08-03T15:15:45.164Z,98356.88
2022-08-03T15:18:13.783Z,98349.78
2022-08-03T15:20:45.593Z,98358.16
2022-08-03T15:23:20.510Z,98346.06
2022-08-03T15:26:30.238Z,98345.09
2022-08-03T15:28:37.399Z,98347.28
2022-08-03T15:31:07.718Z,98345.94
2022-08-03T15:33:35.309Z,98346.22
2022-08-03T15:36:02.294Z,98342.81
2022-08-03T15:38:28.764Z,98350.63
2022-08-03T15:40:55.601Z,98347.06
2022-08-03T15:43:23.351Z,98345.41
2022-08-03T15:46:12.827Z,98334.97
2022-08-03T15:48:36.786Z,98336.53
2022-08-03T15:51:05.569Z,98330.88
2022-08-03T15:53:34.745Z,98336.63
2022-08-03T15:56:07.991Z,98338.19
2022-08-03T15:59:04.665Z,98342.50
2022-08-03T16:01:26.967Z,98335.47
2022-08-03T16:03:57.412Z,98338.78
2022-08-03T16:06:35.343Z,98327.91
2022-08-03T16:09:24.393Z,98326.19
2022-08-03T16:11:54.856Z,98315.19
2022-08-03T16:14:34.651Z,98321.78
2022-08-03T16:17:07.086Z,98318.03
2022-08-03T16:19:33.621Z,98319.31
2022-08-03T16:22:00.862Z,98320.53
2022-08-03T16:24:28.359Z,98318.16
2022-08-03T16:26:56.027Z,98322.47
2022-08-03T16:29:23.371Z,98315.69
2022-08-03T16:31:51.284Z,98311.34
2022-08-03T16:34:18.169Z,98312.09
2022-08-03T16:36:47.976Z,98316.63
2022-08-03T16:39:16.975Z,98313.53
2022-08-03T16:41:53.780Z,98312.25
2022-08-03T16:44:29.080Z,98307.25
2022-08-03T16:46:55.563Z,98311.91
2022-08-03T16:49:53.638Z,98309.56
2022-08-03T16:52:09.156Z,98307.72
2022-08-03T16:54:39.512Z,98306.13
2022-08-03T16:57:31.880Z,98309.59
2022-08-03T16:59:55.286Z,98305.72
2022-08-03T17:02:29.054Z,98303.13
2022-08-03T17:04:58.278Z,98312.44
2022-08-03T17:07:26.579Z,98315.53
2022-08-03T17:10:00.722Z,98312.41
2022-08-03T17:12:30.126Z,98318.25
2022-08-03T17:15:04.655Z,98315.53
2022-08-03T17:17:53.771Z,98313.59
2022-08-03T17:20:29.926Z,98319.03
2022-08-03T17:23:15.876Z,98318.66
2022-08-03T17:26:02.172Z,98321.75
2022-08-03T17:28:49.564Z,98315.16
2022-08-03T17:31:23.517Z,98315.53
2022-08-03T17:34:01.525Z,98312.81
2022-08-03T17:37:01.638Z,98313.56
2022-08-03T17:39:16.943Z,98317.44
2022-08-03T17:41:50.086Z,98322.44
2022-08-03T17:44:33.005Z,98329.03
2022-08-03T17:47:04.905Z,98322.84
2022-08-03T17:49:39.808Z,98320.50
2022-08-03T17:52:21.952Z,98310.47
2022-08-03T17:55:56.145Z,98320.88
2022-08-03T17:58:06.869Z,98324.72
2022-08-03T18:00:54.713Z,98335.16
2022-08-03T18:03:57.973Z,98329.31
2022-08-03T18:06:37.945Z,98329.66
2022-08-03T18:12:15.974Z,98332.28
2022-08-03T18:17:55.583Z,98331.13
2022-08-03T18:20:34.072Z,98329.91
2022-08-03T18:23:05.603Z,98337.97
2022-08-03T18:25:43.081Z,98327.88
2022-08-03T18:28:15.848Z,98333.63
2022-08-03T18:30:53.894Z,98329.31
2022-08-03T18:34:17.823Z,98337.00
2022-08-03T18:36:18.025Z,98333.47
2022-08-03T18:38:51.745Z,98336.09
2022-08-03T18:41:32.886Z,98341.03
2022-08-03T18:44:06.964Z,98342.88
2022-08-03T18:49:41.299Z,98344.16
2022-08-03T18:52:35.688Z,98346.38
2022-08-03T18:55:33.623Z,98345.84
2022-08-03T18:58:15.854Z,98348.13
2022-08-03T19:01:01.478Z,98350.03
2022-08-03T19:03:41.489Z,98359.19
2022-08-03T19:06:20.075Z,98360.72
2022-08-03T19:09:06.833Z,98357.59
2022-08-03T19:12:13.926Z,98360.56
2022-08-03T19:14:44.616Z,98366.84
2022-08-03T19:17:12.439Z,98368.63
2022-08-03T19:19:45.184Z,98371.19
2022-08-03T19:22:15.907Z,98364.56
2022-08-03T19:24:46.176Z,98372.91
2022-08-03T19:27:13.623Z,98369.63
2022-08-03T19:30:00.470Z,98371.41
2022-08-03T19:32:30.606Z,98374.06
2022-08-03T19:34:59.733Z,98374.41
2022-08-03T19:37:38.217Z,98372.88
2022-08-03T19:40:12.393Z,98384.31
2022-08-03T19:42:43.596Z,98384.34
2022-08-03T19:45:14.409Z,98383.78
2022-08-03T19:48:10.146Z,98382.66
2022-08-03T19:50:37.550Z,98383.22
2022-08-03T19:53:12.885Z,98385.09
2022-08-03T19:55:46.439Z,98380.94
2022-08-03T19:58:24.326Z,98376.72
2022-08-03T20:00:55.573Z,98381.00
2022-08-03T20:03:23.422Z,98382.19
2022-08-03T20:05:54.154Z,98382.38
2022-08-03T20:08:22.015Z,98382.81
2022-08-03T20:10:52.178Z,98381.06
2022-08-03T20:13:19.367Z,98382.25
2022-08-03T20:15:46.435Z,98380.63
2022-08-03T20:18:16.484Z,98379.34
2022-08-03T20:20:45.737Z,98380.50
2022-08-03T20:23:18.233Z,98383.06
2022-08-03T20:25:58.504Z,98387.31
2022-08-03T20:28:50.694Z,98386.97
2022-08-03T20:31:25.188Z,98385.84
2022-08-03T20:34:00.555Z,98382.72
2022-08-03T20:36:27.578Z,98386.03
2022-08-03T20:38:57.647Z,98394.00
2022-08-03T20:41:25.436Z,98384.13
2022-08-03T20:43:51.978Z,98393.72
2022-08-03T20:46:33.727Z,98379.34
2022-08-03T20:49:06.780Z,98379.47
2022-08-03T20:51:50.425Z,98385.84
2022-08-03T20:54:28.804Z,98385.41
2022-08-03T20:56:58.494Z,98379.53
2022-08-03T20:59:46.814Z,98382.34
2022-08-03T21:02:19.109Z,98383.41
2022-08-03T21:04:47.319Z,98383.66
2022-08-03T21:07:19.274Z,98381.16
2022-08-03T21:09:57.040Z,98391.50
2022-08-03T21:12:36.262Z,98382.13
2022-08-03T21:12:57.248Z,98337.31
2022-08-03T21:13:04.819Z,98331.56
2022-08-03T21:13:10.955Z,98343.63
2022-08-03T21:15:06.835Z,98394.41
2022-08-03T21:17:40.854Z,98386.28
2022-08-03T21:20:09.745Z,98388.06
2022-08-03T21:22:38.198Z,98386.97
2022-08-03T21:25:08.430Z,98388.00
2022-08-03T21:27:36.292Z,98393.03
2022-08-03T21:30:10.261Z,98390.16
2022-08-03T21:32:40.064Z,98388.59
2022-08-03T21:35:09.634Z,98395.06
2022-08-03T21:37:38.488Z,98392.84
2022-08-03T21:40:05.976Z,98395.53
2022-08-03T21:42:32.472Z,98401.03
2022-08-03T21:44:59.075Z,98398.13
2022-08-03T21:47:26.020Z,98391.56
2022-08-03T21:50:07.622Z,98403.41
2022-08-03T21:52:41.615Z,98404.84
2022-08-03T21:55:08.575Z,98401.28
2022-08-03T21:57:51.385Z,98404.19
2022-08-03T22:00:23.136Z,98399.94
2022-08-03T22:02:57.357Z,98401.50
2022-08-03T22:05:43.578Z,98402.63
2022-08-03T22:08:13.501Z,98397.16
2022-08-03T22:10:40.890Z,98412.91
2022-08-03T22:13:07.626Z,98403.09
2022-08-03T22:15:34.255Z,98399.16
2022-08-03T22:18:03.990Z,98395.97
2022-08-03T22:20:31.260Z,98404.00
2022-08-03T22:23:02.156Z,98409.34
2022-08-03T22:25:31.263Z,98403.06
2022-08-03T22:28:04.894Z,98412.09
2022-08-03T22:30:33.053Z,98413.56
2022-08-03T22:33:01.208Z,98412.34
2022-08-03T22:35:28.643Z,98416.81
2022-08-03T22:37:58.393Z,98420.34
2022-08-03T22:40:26.154Z,98421.25
2022-08-03T22:42:54.434Z,98413.38
2022-08-03T22:46:06.818Z,98419.41
2022-08-03T22:48:08.331Z,98424.06
2022-08-03T22:50:35.041Z,98424.75
2022-08-03T22:53:01.751Z,98422.75
2022-08-03T22:55:28.347Z,98425.75
2022-08-03T22:57:55.896Z,98424.16
2022-08-03T23:00:23.528Z,98422.50
2022-08-03T23:02:51.748Z,98421.50
2022-08-03T23:06:00.348Z,98424.38
2022-08-03T23:08:18.624Z,98427.03
2022-08-03T23:10:47.488Z,98427.78
2022-08-03T23:13:17.626Z,98429.06
2022-08-03T23:15:51.589Z,98428.16
2022-08-03T23:18:20.670Z,98428.63
2022-08-03T23:20:51.098Z,98431.94
2022-08-03T23:23:19.782Z,98433.88
2022-08-03T23:25:49.768Z,98433.31
2022-08-03T23:28:16.950Z,98438.19
2022-08-03T23:30:44.703Z,98434.59
2022-08-03T23:33:15.045Z,98433.22
2022-08-03T23:36:29.668Z,98432.91
2022-08-03T23:38:44.765Z,98434.53
2022-08-03T23:41:12.608Z,98435.34
2022-08-03T23:43:51.837Z,98441.44
2022-08-03T23:46:21.747Z,98437.06
2022-08-03T23:48:48.305Z,98439.16
2022-08-03T23:51:35.443Z,98437.34
2022-08-03T23:54:34.344Z,98437.22
2022-08-03T23:57:08.132Z,98436.00
2022-08-03T23:59:50.640Z,98437.44
